sensor_id;sensor_type;location;lat;lon;timestamp;P1;durP1;ratioP1;P2;durP2;ratioP2
74259;SDS011;62630;55.874;37.516;2023-02-28T00:00:27;5.28;;;3.10;;
74259;SDS011;62630;55.874;37.516;2023-02-28T00:02:53;5.30;;;3.13;;
74259;SDS011;62630;55.874;37.516;2023-02-28T00:05:19;5.15;;;3.10;;
74259;SDS011;62630;55.874;37.516;2023-02-28T00:07:46;3.97;;;2.28;;
74259;SDS011;62630;55.874;37.516;2023-02-28T00:10:13;6.35;;;2.80;;
74259;SDS011;62630;55.874;37.516;2023-02-28T00:12:41;6.80;;;3.55;;
74259;SDS011;62630;55.874;37.516;2023-02-28T00:15:07;6.60;;;3.08;;
74259;SDS011;62630;55.874;37.516;2023-02-28T00:17:34;5.00;;;2.83;;
74259;SDS011;62630;55.874;37.516;2023-02-28T00:20:00;4.88;;;3.10;;
74259;SDS011;62630;55.874;37.516;2023-02-28T00:22:29;5.32;;;3.33;;
74259;SDS011;62630;55.874;37.516;2023-02-28T00:24:55;4.47;;;2.88;;
74259;SDS011;62630;55.874;37.516;2023-02-28T00:27:21;4.03;;;2.47;;
74259;SDS011;62630;55.874;37.516;2023-02-28T00:29:47;4.68;;;3.17;;
74259;SDS011;62630;55.874;37.516;2023-02-28T00:32:12;5.05;;;2.50;;
74259;SDS011;62630;55.874;37.516;2023-02-28T00:34:38;4.40;;;2.70;;
74259;SDS011;62630;55.874;37.516;2023-02-28T00:37:05;5.35;;;3.25;;
74259;SDS011;62630;55.874;37.516;2023-02-28T00:39:35;5.15;;;3.15;;
74259;SDS011;62630;55.874;37.516;2023-02-28T00:42:02;4.55;;;2.88;;
74259;SDS011;62630;55.874;37.516;2023-02-28T00:44:28;5.60;;;3.30;;
74259;SDS011;62630;55.874;37.516;2023-02-28T00:46:54;6.05;;;2.40;;
74259;SDS011;62630;55.874;37.516;2023-02-28T00:49:20;5.53;;;3.22;;
74259;SDS011;62630;55.874;37.516;2023-02-28T00:51:46;4.93;;;2.92;;
74259;SDS011;62630;55.874;37.516;2023-02-28T00:54:12;4.78;;;2.80;;
74259;SDS011;62630;55.874;37.516;2023-02-28T00:56:37;4.53;;;3.10;;
74259;SDS011;62630;55.874;37.516;2023-02-28T00:59:03;8.18;;;3.17;;
74259;SDS011;62630;55.874;37.516;2023-02-28T01:01:29;4.00;;;2.45;;
74259;SDS011;62630;55.874;37.516;2023-02-28T01:03:54;4.30;;;2.50;;
74259;SDS011;62630;55.874;37.516;2023-02-28T01:06:20;5.28;;;3.10;;
74259;SDS011;62630;55.874;37.516;2023-02-28T01:08:45;3.75;;;2.20;;
74259;SDS011;62630;55.874;37.516;2023-02-28T01:11:11;5.07;;;2.75;;
74259;SDS011;62630;55.874;37.516;2023-02-28T01:13:40;3.80;;;2.63;;
74259;SDS011;62630;55.874;37.516;2023-02-28T01:16:06;5.85;;;2.90;;
74259;SDS011;62630;55.874;37.516;2023-02-28T01:18:32;6.20;;;3.17;;
74259;SDS011;62630;55.874;37.516;2023-02-28T01:20:57;6.43;;;2.97;;
74259;SDS011;62630;55.874;37.516;2023-02-28T01:23:23;5.03;;;3.33;;
74259;SDS011;62630;55.874;37.516;2023-02-28T01:25:52;5.07;;;3.35;;
74259;SDS011;62630;55.874;37.516;2023-02-28T01:28:18;5.28;;;2.95;;
74259;SDS011;62630;55.874;37.516;2023-02-28T01:30:47;4.50;;;2.78;;
74259;SDS011;62630;55.874;37.516;2023-02-28T01:33:13;6.32;;;3.38;;
74259;SDS011;62630;55.874;37.516;2023-02-28T01:35:38;4.25;;;2.65;;
74259;SDS011;62630;55.874;37.516;2023-02-28T01:38:04;5.43;;;2.92;;
74259;SDS011;62630;55.874;37.516;2023-02-28T01:40:29;4.18;;;2.85;;
74259;SDS011;62630;55.874;37.516;2023-02-28T01:42:55;5.18;;;2.67;;
74259;SDS011;62630;55.874;37.516;2023-02-28T01:47:50;4.82;;;2.83;;
74259;SDS011;62630;55.874;37.516;2023-02-28T01:50:20;7.80;;;3.78;;
74259;SDS011;62630;55.874;37.516;2023-02-28T01:52:49;4.97;;;3.05;;
74259;SDS011;62630;55.874;37.516;2023-02-28T01:55:18;5.85;;;2.70;;
74259;SDS011;62630;55.874;37.516;2023-02-28T01:57:49;4.40;;;2.45;;
74259;SDS011;62630;55.874;37.516;2023-02-28T02:00:18;5.32;;;3.13;;
74259;SDS011;62630;55.874;37.516;2023-02-28T02:02:48;5.90;;;3.10;;
74259;SDS011;62630;55.874;37.516;2023-02-28T02:05:18;3.83;;;2.67;;
74259;SDS011;62630;55.874;37.516;2023-02-28T02:07:46;7.28;;;2.80;;
74259;SDS011;62630;55.874;37.516;2023-02-28T02:18:18;3.72;;;2.20;;
74259;SDS011;62630;55.874;37.516;2023-02-28T02:21:10;6.70;;;2.95;;
74259;SDS011;62630;55.874;37.516;2023-02-28T02:37:46;5.18;;;3.40;;
74259;SDS011;62630;55.874;37.516;2023-02-28T02:40:15;4.45;;;3.30;;
74259;SDS011;62630;55.874;37.516;2023-02-28T02:42:51;4.82;;;3.00;;
74259;SDS011;62630;55.874;37.516;2023-02-28T02:48:13;3.97;;;2.35;;
74259;SDS011;62630;55.874;37.516;2023-02-28T02:50:45;5.47;;;3.20;;
74259;SDS011;62630;55.874;37.516;2023-02-28T02:53:14;5.50;;;3.00;;
74259;SDS011;62630;55.874;37.516;2023-02-28T02:55:44;6.15;;;2.88;;
74259;SDS011;62630;55.874;37.516;2023-02-28T02:58:14;5.10;;;2.97;;
74259;SDS011;62630;55.874;37.516;2023-02-28T03:00:42;5.78;;;3.33;;
74259;SDS011;62630;55.874;37.516;2023-02-28T03:03:32;9.30;;;3.22;;
74259;SDS011;62630;55.874;37.516;2023-02-28T03:06:00;5.28;;;3.13;;
74259;SDS011;62630;55.874;37.516;2023-02-28T03:08:28;5.03;;;2.75;;
74259;SDS011;62630;55.874;37.516;2023-02-28T03:11:05;5.13;;;2.78;;
74259;SDS011;62630;55.874;37.516;2023-02-28T03:24:49;5.97;;;2.70;;
74259;SDS011;62630;55.874;37.516;2023-02-28T03:27:29;4.40;;;2.63;;
74259;SDS011;62630;55.874;37.516;2023-02-28T03:30:00;4.35;;;2.22;;
74259;SDS011;62630;55.874;37.516;2023-02-28T03:32:42;3.63;;;2.60;;
74259;SDS011;62630;55.874;37.516;2023-02-28T03:35:39;6.15;;;2.90;;
74259;SDS011;62630;55.874;37.516;2023-02-28T03:38:10;3.42;;;2.45;;
74259;SDS011;62630;55.874;37.516;2023-02-28T03:40:41;3.85;;;3.00;;
74259;SDS011;62630;55.874;37.516;2023-02-28T03:43:12;3.80;;;2.33;;
74259;SDS011;62630;55.874;37.516;2023-02-28T03:45:43;5.45;;;3.22;;
74259;SDS011;62630;55.874;37.516;2023-02-28T03:48:24;4.68;;;3.28;;
74259;SDS011;62630;55.874;37.516;2023-02-28T03:50:57;3.53;;;2.25;;
74259;SDS011;62630;55.874;37.516;2023-02-28T03:53:26;4.10;;;2.60;;
74259;SDS011;62630;55.874;37.516;2023-02-28T03:56:05;6.28;;;3.67;;
74259;SDS011;62630;55.874;37.516;2023-02-28T03:58:59;4.07;;;2.40;;
74259;SDS011;62630;55.874;37.516;2023-02-28T04:01:38;4.47;;;2.50;;
74259;SDS011;62630;55.874;37.516;2023-02-28T04:04:09;4.25;;;2.47;;
74259;SDS011;62630;55.874;37.516;2023-02-28T04:06:37;7.53;;;3.10;;
74259;SDS011;62630;55.874;37.516;2023-02-28T04:09:06;5.03;;;3.05;;
74259;SDS011;62630;55.874;37.516;2023-02-28T04:11:44;6.65;;;3.03;;
74259;SDS011;62630;55.874;37.516;2023-02-28T04:14:16;4.00;;;2.75;;
74259;SDS011;62630;55.874;37.516;2023-02-28T04:16:42;3.45;;;2.90;;
74259;SDS011;62630;55.874;37.516;2023-02-28T04:19:09;4.18;;;2.55;;
74259;SDS011;62630;55.874;37.516;2023-02-28T04:21:40;5.43;;;2.25;;
74259;SDS011;62630;55.874;37.516;2023-02-28T04:24:18;6.20;;;2.80;;
74259;SDS011;62630;55.874;37.516;2023-02-28T04:26:48;4.75;;;2.30;;
74259;SDS011;62630;55.874;37.516;2023-02-28T04:29:23;4.88;;;3.10;;
74259;SDS011;62630;55.874;37.516;2023-02-28T04:31:51;6.47;;;2.97;;
74259;SDS011;62630;55.874;37.516;2023-02-28T04:34:18;3.78;;;1.85;;
74259;SDS011;62630;55.874;37.516;2023-02-28T04:36:45;3.63;;;2.17;;
74259;SDS011;62630;55.874;37.516;2023-02-28T04:39:11;3.88;;;2.13;;
74259;SDS011;62630;55.874;37.516;2023-02-28T04:41:40;5.22;;;2.85;;
74259;SDS011;62630;55.874;37.516;2023-02-28T04:44:05;5.03;;;2.47;;
74259;SDS011;62630;55.874;37.516;2023-02-28T04:46:34;4.47;;;2.05;;
74259;SDS011;62630;55.874;37.516;2023-02-28T04:49:00;4.80;;;2.92;;
74259;SDS011;62630;55.874;37.516;2023-02-28T04:51:28;6.18;;;2.97;;
74259;SDS011;62630;55.874;37.516;2023-02-28T04:53:55;5.00;;;2.40;;
74259;SDS011;62630;55.874;37.516;2023-02-28T04:56:23;4.97;;;2.58;;
74259;SDS011;62630;55.874;37.516;2023-02-28T04:58:49;3.83;;;2.38;;
74259;SDS011;62630;55.874;37.516;2023-02-28T05:04:04;3.75;;;2.28;;
74259;SDS011;62630;55.874;37.516;2023-02-28T05:06:31;3.83;;;2.38;;
74259;SDS011;62630;55.874;37.516;2023-02-28T05:09:01;5.60;;;2.72;;
74259;SDS011;62630;55.874;37.516;2023-02-28T05:11:30;4.53;;;2.50;;
74259;SDS011;62630;55.874;37.516;2023-02-28T05:14:06;4.13;;;2.33;;
74259;SDS011;62630;55.874;37.516;2023-02-28T05:16:40;4.03;;;2.50;;
74259;SDS011;62630;55.874;37.516;2023-02-28T05:19:07;3.80;;;2.03;;
74259;SDS011;62630;55.874;37.516;2023-02-28T05:21:34;4.07;;;2.20;;
74259;SDS011;62630;55.874;37.516;2023-02-28T05:24:03;4.72;;;2.65;;
74259;SDS011;62630;55.874;37.516;2023-02-28T05:26:33;3.72;;;1.95;;
74259;SDS011;62630;55.874;37.516;2023-02-28T05:29:01;4.65;;;2.95;;
74259;SDS011;62630;55.874;37.516;2023-02-28T05:31:26;4.20;;;2.58;;
74259;SDS011;62630;55.874;37.516;2023-02-28T05:33:52;4.03;;;2.17;;
74259;SDS011;62630;55.874;37.516;2023-02-28T05:36:18;4.38;;;1.73;;
74259;SDS011;62630;55.874;37.516;2023-02-28T05:38:48;5.18;;;2.95;;
74259;SDS011;62630;55.874;37.516;2023-02-28T05:41:14;6.32;;;2.95;;
74259;SDS011;62630;55.874;37.516;2023-02-28T05:43:40;5.20;;;2.78;;
74259;SDS011;62630;55.874;37.516;2023-02-28T05:46:07;4.18;;;2.65;;
74259;SDS011;62630;55.874;37.516;2023-02-28T05:48:34;3.97;;;2.28;;
74259;SDS011;62630;55.874;37.516;2023-02-28T05:53:28;3.78;;;2.22;;
74259;SDS011;62630;55.874;37.516;2023-02-28T05:55:54;4.13;;;2.55;;
74259;SDS011;62630;55.874;37.516;2023-02-28T05:58:19;4.43;;;2.80;;
74259;SDS011;62630;55.874;37.516;2023-02-28T06:00:45;3.90;;;2.13;;
74259;SDS011;62630;55.874;37.516;2023-02-28T06:03:15;3.97;;;2.50;;
74259;SDS011;62630;55.874;37.516;2023-02-28T06:05:41;2.28;;;1.85;;
74259;SDS011;62630;55.874;37.516;2023-02-28T06:08:06;3.53;;;2.50;;
74259;SDS011;62630;55.874;37.516;2023-02-28T06:10:33;3.80;;;2.42;;
74259;SDS011;62630;55.874;37.516;2023-02-28T06:15:27;3.38;;;2.28;;
74259;SDS011;62630;55.874;37.516;2023-02-28T06:17:53;3.72;;;2.53;;
74259;SDS011;62630;55.874;37.516;2023-02-28T06:20:21;4.90;;;2.20;;
74259;SDS011;62630;55.874;37.516;2023-02-28T06:22:48;3.47;;;1.92;;
74259;SDS011;62630;55.874;37.516;2023-02-28T06:25:15;4.55;;;2.50;;
74259;SDS011;62630;55.874;37.516;2023-02-28T06:27:42;4.18;;;2.17;;
74259;SDS011;62630;55.874;37.516;2023-02-28T06:30:11;4.22;;;2.10;;
74259;SDS011;62630;55.874;37.516;2023-02-28T06:32:37;4.97;;;2.63;;
74259;SDS011;62630;55.874;37.516;2023-02-28T06:35:03;4.53;;;2.67;;
74259;SDS011;62630;55.874;37.516;2023-02-28T06:37:30;7.25;;;2.35;;
74259;SDS011;62630;55.874;37.516;2023-02-28T06:39:56;3.88;;;2.13;;
74259;SDS011;62630;55.874;37.516;2023-02-28T06:42:22;3.53;;;2.03;;
74259;SDS011;62630;55.874;37.516;2023-02-28T06:44:54;4.00;;;2.13;;
74259;SDS011;62630;55.874;37.516;2023-02-28T06:47:20;4.05;;;2.33;;
74259;SDS011;62630;55.874;37.516;2023-02-28T06:49:47;3.78;;;2.10;;
74259;SDS011;62630;55.874;37.516;2023-02-28T06:52:12;4.10;;;2.55;;
74259;SDS011;62630;55.874;37.516;2023-02-28T06:54:39;4.53;;;2.20;;
74259;SDS011;62630;55.874;37.516;2023-02-28T06:57:04;3.30;;;1.90;;
74259;SDS011;62630;55.874;37.516;2023-02-28T06:59:32;3.47;;;2.05;;
74259;SDS011;62630;55.874;37.516;2023-02-28T07:02:05;3.70;;;2.30;;
74259;SDS011;62630;55.874;37.516;2023-02-28T07:04:33;3.78;;;2.10;;
74259;SDS011;62630;55.874;37.516;2023-02-28T07:07:01;3.90;;;2.50;;
74259;SDS011;62630;55.874;37.516;2023-02-28T07:09:27;4.10;;;2.15;;
74259;SDS011;62630;55.874;37.516;2023-02-28T07:11:55;3.40;;;2.10;;
74259;SDS011;62630;55.874;37.516;2023-02-28T07:14:20;3.83;;;2.10;;
74259;SDS011;62630;55.874;37.516;2023-02-28T07:16:47;4.47;;;2.50;;
74259;SDS011;62630;55.874;37.516;2023-02-28T07:19:15;3.85;;;2.13;;
74259;SDS011;62630;55.874;37.516;2023-02-28T07:21:41;4.22;;;2.53;;
74259;SDS011;62630;55.874;37.516;2023-02-28T07:24:06;5.20;;;2.63;;
74259;SDS011;62630;55.874;37.516;2023-02-28T07:26:32;4.40;;;2.42;;
74259;SDS011;62630;55.874;37.516;2023-02-28T07:29:01;3.42;;;2.25;;
74259;SDS011;62630;55.874;37.516;2023-02-28T07:31:27;3.95;;;2.30;;
74259;SDS011;62630;55.874;37.516;2023-02-28T07:33:53;3.65;;;2.17;;
74259;SDS011;62630;55.874;37.516;2023-02-28T07:36:21;5.72;;;2.03;;
74259;SDS011;62630;55.874;37.516;2023-02-28T07:38:47;5.78;;;2.80;;
74259;SDS011;62630;55.874;37.516;2023-02-28T07:41:19;3.17;;;2.03;;
74259;SDS011;62630;55.874;37.516;2023-02-28T07:43:46;4.47;;;2.58;;
74259;SDS011;62630;55.874;37.516;2023-02-28T07:46:13;5.63;;;2.63;;
74259;SDS011;62630;55.874;37.516;2023-02-28T07:48:40;5.80;;;2.45;;
74259;SDS011;62630;55.874;37.516;2023-02-28T07:51:07;13.82;;;2.28;;
74259;SDS011;62630;55.874;37.516;2023-02-28T07:53:33;3.83;;;2.08;;
74259;SDS011;62630;55.874;37.516;2023-02-28T07:56:07;5.32;;;1.98;;
74259;SDS011;62630;55.874;37.516;2023-02-28T07:58:33;4.28;;;2.58;;
74259;SDS011;62630;55.874;37.516;2023-02-28T08:01:06;4.50;;;2.08;;
74259;SDS011;62630;55.874;37.516;2023-02-28T08:03:33;3.97;;;2.55;;
74259;SDS011;62630;55.874;37.516;2023-02-28T08:06:02;3.65;;;2.42;;
74259;SDS011;62630;55.874;37.516;2023-02-28T08:08:29;4.72;;;2.30;;
74259;SDS011;62630;55.874;37.516;2023-02-28T08:10:57;4.10;;;2.50;;
74259;SDS011;62630;55.874;37.516;2023-02-28T08:13:27;5.28;;;2.65;;
74259;SDS011;62630;55.874;37.516;2023-02-28T08:15:54;3.28;;;2.28;;
74259;SDS011;62630;55.874;37.516;2023-02-28T08:18:23;4.18;;;2.40;;
74259;SDS011;62630;55.874;37.516;2023-02-28T08:20:51;4.32;;;2.30;;
74259;SDS011;62630;55.874;37.516;2023-02-28T08:23:17;3.78;;;2.40;;
74259;SDS011;62630;55.874;37.516;2023-02-28T08:25:42;3.80;;;2.13;;
74259;SDS011;62630;55.874;37.516;2023-02-28T08:28:08;5.18;;;2.47;;
74259;SDS011;62630;55.874;37.516;2023-02-28T08:30:34;3.95;;;2.38;;
74259;SDS011;62630;55.874;37.516;2023-02-28T08:33:00;2.80;;;1.80;;
74259;SDS011;62630;55.874;37.516;2023-02-28T08:35:26;4.78;;;2.78;;
74259;SDS011;62630;55.874;37.516;2023-02-28T08:37:54;4.60;;;1.90;;
74259;SDS011;62630;55.874;37.516;2023-02-28T08:40:23;3.58;;;2.03;;
74259;SDS011;62630;55.874;37.516;2023-02-28T08:42:49;5.70;;;2.30;;
74259;SDS011;62630;55.874;37.516;2023-02-28T08:45:28;3.38;;;1.73;;
74259;SDS011;62630;55.874;37.516;2023-02-28T08:47:54;3.58;;;2.58;;
74259;SDS011;62630;55.874;37.516;2023-02-28T08:50:20;2.92;;;1.63;;
74259;SDS011;62630;55.874;37.516;2023-02-28T08:52:49;3.10;;;2.00;;
74259;SDS011;62630;55.874;37.516;2023-02-28T08:55:19;3.30;;;1.98;;
74259;SDS011;62630;55.874;37.516;2023-02-28T08:57:44;3.30;;;1.77;;
74259;SDS011;62630;55.874;37.516;2023-02-28T09:00:10;2.78;;;1.90;;
74259;SDS011;62630;55.874;37.516;2023-02-28T09:02:41;3.63;;;2.05;;
74259;SDS011;62630;55.874;37.516;2023-02-28T09:05:07;3.65;;;2.13;;
74259;SDS011;62630;55.874;37.516;2023-02-28T09:07:36;2.72;;;1.77;;
74259;SDS011;62630;55.874;37.516;2023-02-28T09:10:03;5.28;;;1.95;;
74259;SDS011;62630;55.874;37.516;2023-02-28T09:12:33;6.03;;;2.25;;
74259;SDS011;62630;55.874;37.516;2023-02-28T09:15:01;3.30;;;1.80;;
74259;SDS011;62630;55.874;37.516;2023-02-28T09:17:27;2.20;;;1.45;;
74259;SDS011;62630;55.874;37.516;2023-02-28T09:19:52;3.17;;;1.98;;
74259;SDS011;62630;55.874;37.516;2023-02-28T09:22:18;3.35;;;2.15;;
74259;SDS011;62630;55.874;37.516;2023-02-28T09:24:44;3.47;;;1.85;;
74259;SDS011;62630;55.874;37.516;2023-02-28T09:27:09;4.80;;;2.30;;
74259;SDS011;62630;55.874;37.516;2023-02-28T09:29:40;3.88;;;2.38;;
74259;SDS011;62630;55.874;37.516;2023-02-28T09:32:07;3.00;;;1.90;;
74259;SDS011;62630;55.874;37.516;2023-02-28T09:34:33;4.03;;;2.08;;
74259;SDS011;62630;55.874;37.516;2023-02-28T09:37:02;3.50;;;1.95;;
74259;SDS011;62630;55.874;37.516;2023-02-28T09:39:27;2.90;;;2.05;;
74259;SDS011;62630;55.874;37.516;2023-02-28T09:41:54;4.75;;;1.67;;
74259;SDS011;62630;55.874;37.516;2023-02-28T09:44:30;2.42;;;1.55;;
74259;SDS011;62630;55.874;37.516;2023-02-28T09:47:02;4.20;;;1.63;;
74259;SDS011;62630;55.874;37.516;2023-02-28T09:49:37;2.35;;;1.48;;
74259;SDS011;62630;55.874;37.516;2023-02-28T09:52:12;5.28;;;2.13;;
74259;SDS011;62630;55.874;37.516;2023-02-28T09:54:42;4.32;;;1.95;;
74259;SDS011;62630;55.874;37.516;2023-02-28T09:57:31;1.80;;;1.33;;
74259;SDS011;62630;55.874;37.516;2023-02-28T10:00:10;3.17;;;1.90;;
74259;SDS011;62630;55.874;37.516;2023-02-28T10:05:47;2.85;;;1.70;;
74259;SDS011;62630;55.874;37.516;2023-02-28T10:08:23;3.78;;;1.80;;
74259;SDS011;62630;55.874;37.516;2023-02-28T10:11:13;2.03;;;1.52;;
74259;SDS011;62630;55.874;37.516;2023-02-28T10:16:17;2.80;;;1.52;;
74259;SDS011;62630;55.874;37.516;2023-02-28T10:18:51;4.53;;;1.80;;
74259;SDS011;62630;55.874;37.516;2023-02-28T10:21:41;2.17;;;1.42;;
74259;SDS011;62630;55.874;37.516;2023-02-28T10:24:29;3.75;;;2.10;;
74259;SDS011;62630;55.874;37.516;2023-02-28T10:27:01;3.10;;;1.67;;
74259;SDS011;62630;55.874;37.516;2023-02-28T10:29:42;3.13;;;2.15;;
74259;SDS011;62630;55.874;37.516;2023-02-28T10:32:10;2.83;;;1.70;;
74259;SDS011;62630;55.874;37.516;2023-02-28T10:34:44;4.03;;;2.20;;
74259;SDS011;62630;55.874;37.516;2023-02-28T10:37:15;4.55;;;1.92;;
74259;SDS011;62630;55.874;37.516;2023-02-28T10:39:47;3.72;;;1.98;;
74259;SDS011;62630;55.874;37.516;2023-02-28T10:42:31;4.35;;;2.05;;
74259;SDS011;62630;55.874;37.516;2023-02-28T10:45:15;5.43;;;2.15;;
74259;SDS011;62630;55.874;37.516;2023-02-28T10:47:48;4.20;;;2.47;;
74259;SDS011;62630;55.874;37.516;2023-02-28T10:50:35;3.00;;;1.92;;
74259;SDS011;62630;55.874;37.516;2023-02-28T10:55:43;3.15;;;2.03;;
74259;SDS011;62630;55.874;37.516;2023-02-28T10:58:23;2.75;;;1.70;;
74259;SDS011;62630;55.874;37.516;2023-02-28T11:00:50;4.90;;;2.17;;
74259;SDS011;62630;55.874;37.516;2023-02-28T11:03:25;2.22;;;1.60;;
74259;SDS011;62630;55.874;37.516;2023-02-28T11:05:56;2.50;;;1.50;;
74259;SDS011;62630;55.874;37.516;2023-02-28T11:08:22;3.70;;;2.13;;
74259;SDS011;62630;55.874;37.516;2023-02-28T11:10:59;5.15;;;2.10;;
74259;SDS011;62630;55.874;37.516;2023-02-28T11:13:34;3.85;;;2.00;;
74259;SDS011;62630;55.874;37.516;2023-02-28T11:16:04;3.30;;;1.95;;
74259;SDS011;62630;55.874;37.516;2023-02-28T11:21:18;4.07;;;2.10;;
74259;SDS011;62630;55.874;37.516;2023-02-28T11:23:44;3.25;;;2.05;;
74259;SDS011;62630;55.874;37.516;2023-02-28T11:26:12;3.42;;;1.98;;
74259;SDS011;62630;55.874;37.516;2023-02-28T11:34:45;2.65;;;2.00;;
74259;SDS011;62630;55.874;37.516;2023-02-28T11:37:16;3.83;;;2.13;;
74259;SDS011;62630;55.874;37.516;2023-02-28T11:39:48;4.97;;;2.10;;
74259;SDS011;62630;55.874;37.516;2023-02-28T11:57:03;3.92;;;1.90;;
74259;SDS011;62630;55.874;37.516;2023-02-28T12:02:29;3.45;;;2.30;;
74259;SDS011;62630;55.874;37.516;2023-02-28T12:07:42;2.65;;;1.83;;
74259;SDS011;62630;55.874;37.516;2023-02-28T12:10:18;3.75;;;1.88;;
74259;SDS011;62630;55.874;37.516;2023-02-28T12:22:21;4.50;;;1.83;;
74259;SDS011;62630;55.874;37.516;2023-02-28T12:25:15;5.57;;;2.05;;
74259;SDS011;62630;55.874;37.516;2023-02-28T12:28:03;2.60;;;1.35;;
74259;SDS011;62630;55.874;37.516;2023-02-28T12:30:33;3.72;;;2.05;;
74259;SDS011;62630;55.874;37.516;2023-02-28T12:35:55;3.17;;;2.00;;
74259;SDS011;62630;55.874;37.516;2023-02-28T12:38:23;3.17;;;1.88;;
74259;SDS011;62630;55.874;37.516;2023-02-28T12:40:53;3.50;;;1.98;;
74259;SDS011;62630;55.874;37.516;2023-02-28T12:45:59;3.05;;;1.95;;
74259;SDS011;62630;55.874;37.516;2023-02-28T12:48:31;3.15;;;2.15;;
74259;SDS011;62630;55.874;37.516;2023-02-28T12:51:05;3.80;;;2.17;;
74259;SDS011;62630;55.874;37.516;2023-02-28T12:58:45;3.63;;;1.95;;
74259;SDS011;62630;55.874;37.516;2023-02-28T13:34:35;3.97;;;2.10;;
74259;SDS011;62630;55.874;37.516;2023-02-28T13:47:40;3.00;;;1.75;;
74259;SDS011;62630;55.874;37.516;2023-02-28T13:50:23;2.00;;;1.25;;
74259;SDS011;62630;55.874;37.516;2023-02-28T13:53:03;2.33;;;1.73;;
74259;SDS011;62630;55.874;37.516;2023-02-28T14:07:00;3.42;;;1.83;;
74259;SDS011;62630;55.874;37.516;2023-02-28T14:09:35;3.33;;;2.10;;
74259;SDS011;62630;55.874;37.516;2023-02-28T14:21:33;4.97;;;2.95;;
74259;SDS011;62630;55.874;37.516;2023-02-28T14:30:15;3.83;;;2.38;;
74259;SDS011;62630;55.874;37.516;2023-02-28T14:33:08;4.15;;;2.00;;
74259;SDS011;62630;55.874;37.516;2023-02-28T14:38:46;3.50;;;2.05;;
74259;SDS011;62630;55.874;37.516;2023-02-28T14:41:49;2.80;;;1.70;;
74259;SDS011;62630;55.874;37.516;2023-02-28T14:44:21;3.78;;;1.90;;
74259;SDS011;62630;55.874;37.516;2023-02-28T14:46:57;6.93;;;1.88;;
74259;SDS011;62630;55.874;37.516;2023-02-28T14:52:19;2.28;;;1.65;;
74259;SDS011;62630;55.874;37.516;2023-02-28T14:54:51;2.58;;;1.65;;
74259;SDS011;62630;55.874;37.516;2023-02-28T14:57:26;2.75;;;1.77;;
74259;SDS011;62630;55.874;37.516;2023-02-28T15:02:30;3.67;;;2.17;;
74259;SDS011;62630;55.874;37.516;2023-02-28T15:05:00;3.30;;;2.22;;
74259;SDS011;62630;55.874;37.516;2023-02-28T15:07:42;3.78;;;2.03;;
74259;SDS011;62630;55.874;37.516;2023-02-28T15:10:24;3.53;;;2.30;;
74259;SDS011;62630;55.874;37.516;2023-02-28T15:15:26;3.17;;;2.10;;
74259;SDS011;62630;55.874;37.516;2023-02-28T15:18:23;2.67;;;1.73;;
74259;SDS011;62630;55.874;37.516;2023-02-28T15:21:12;2.67;;;1.90;;
74259;SDS011;62630;55.874;37.516;2023-02-28T15:23:53;3.00;;;1.90;;
74259;SDS011;62630;55.874;37.516;2023-02-28T15:26:25;2.83;;;1.85;;
74259;SDS011;62630;55.874;37.516;2023-02-28T15:28:58;3.45;;;2.38;;
74259;SDS011;62630;55.874;37.516;2023-02-28T15:31:27;4.25;;;1.90;;
74259;SDS011;62630;55.874;37.516;2023-02-28T15:33:57;2.97;;;2.10;;
74259;SDS011;62630;55.874;37.516;2023-02-28T15:36:30;3.38;;;1.92;;
74259;SDS011;62630;55.874;37.516;2023-02-28T15:38:58;4.25;;;1.70;;
74259;SDS011;62630;55.874;37.516;2023-02-28T15:41:26;3.28;;;2.00;;
74259;SDS011;62630;55.874;37.516;2023-02-28T15:46:41;2.00;;;1.58;;
74259;SDS011;62630;55.874;37.516;2023-02-28T15:49:16;2.03;;;1.60;;
74259;SDS011;62630;55.874;37.516;2023-02-28T15:51:44;2.90;;;1.63;;
74259;SDS011;62630;55.874;37.516;2023-02-28T15:54:21;2.72;;;1.92;;
74259;SDS011;62630;55.874;37.516;2023-02-28T15:56:51;4.65;;;2.10;;
74259;SDS011;62630;55.874;37.516;2023-02-28T15:59:25;2.80;;;1.75;;
74259;SDS011;62630;55.874;37.516;2023-02-28T16:04:35;2.33;;;1.40;;
74259;SDS011;62630;55.874;37.516;2023-02-28T16:07:11;2.13;;;1.45;;
74259;SDS011;62630;55.874;37.516;2023-02-28T16:09:46;3.13;;;1.88;;
74259;SDS011;62630;55.874;37.516;2023-02-28T16:12:14;3.58;;;1.65;;
74259;SDS011;62630;55.874;37.516;2023-02-28T16:14:40;2.40;;;1.33;;
74259;SDS011;62630;55.874;37.516;2023-02-28T16:17:09;2.58;;;1.90;;
74259;SDS011;62630;55.874;37.516;2023-02-28T16:19:47;3.38;;;1.83;;
74259;SDS011;62630;55.874;37.516;2023-02-28T16:22:16;2.40;;;1.85;;
74259;SDS011;62630;55.874;37.516;2023-02-28T16:24:45;3.53;;;1.83;;
74259;SDS011;62630;55.874;37.516;2023-02-28T16:27:22;2.42;;;1.35;;
74259;SDS011;62630;55.874;37.516;2023-02-28T16:29:56;2.40;;;1.60;;
74259;SDS011;62630;55.874;37.516;2023-02-28T16:32:29;2.78;;;1.60;;
74259;SDS011;62630;55.874;37.516;2023-02-28T16:34:57;5.05;;;2.35;;
74259;SDS011;62630;55.874;37.516;2023-02-28T16:37:22;2.97;;;1.58;;
74259;SDS011;62630;55.874;37.516;2023-02-28T16:39:48;3.42;;;1.83;;
74259;SDS011;62630;55.874;37.516;2023-02-28T16:42:16;3.35;;;1.60;;
74259;SDS011;62630;55.874;37.516;2023-02-28T16:44:48;2.25;;;1.73;;
74259;SDS011;62630;55.874;37.516;2023-02-28T16:47:15;3.15;;;1.95;;
74259;SDS011;62630;55.874;37.516;2023-02-28T16:49:43;4.32;;;1.90;;
74259;SDS011;62630;55.874;37.516;2023-02-28T16:52:09;1.52;;;1.38;;
74259;SDS011;62630;55.874;37.516;2023-02-28T16:54:37;2.83;;;2.03;;
74259;SDS011;62630;55.874;37.516;2023-02-28T16:59:43;3.58;;;1.70;;
74259;SDS011;62630;55.874;37.516;2023-02-28T17:02:18;4.45;;;1.83;;
74259;SDS011;62630;55.874;37.516;2023-02-28T17:04:44;2.17;;;1.38;;
74259;SDS011;62630;55.874;37.516;2023-02-28T17:07:11;4.45;;;1.60;;
74259;SDS011;62630;55.874;37.516;2023-02-28T17:09:39;2.83;;;1.55;;
74259;SDS011;62630;55.874;37.516;2023-02-28T17:12:06;1.25;;;1.15;;
74259;SDS011;62630;55.874;37.516;2023-02-28T17:14:33;3.35;;;1.95;;
74259;SDS011;62630;55.874;37.516;2023-02-28T17:16:58;5.35;;;1.70;;
74259;SDS011;62630;55.874;37.516;2023-02-28T17:19:24;2.03;;;1.20;;
74259;SDS011;62630;55.874;37.516;2023-02-28T17:21:49;4.65;;;1.60;;
74259;SDS011;62630;55.874;37.516;2023-02-28T17:24:15;3.13;;;1.23;;
74259;SDS011;62630;55.874;37.516;2023-02-28T17:26:41;1.65;;;1.13;;
74259;SDS011;62630;55.874;37.516;2023-02-28T17:29:15;3.22;;;1.10;;
74259;SDS011;62630;55.874;37.516;2023-02-28T17:31:45;2.03;;;1.27;;
74259;SDS011;62630;55.874;37.516;2023-02-28T17:34:12;2.22;;;0.80;;
74259;SDS011;62630;55.874;37.516;2023-02-28T17:36:43;1.85;;;0.73;;
74259;SDS011;62630;55.874;37.516;2023-02-28T17:39:18;5.22;;;0.75;;
74259;SDS011;62630;55.874;37.516;2023-02-28T17:41:52;7.07;;;0.68;;
74259;SDS011;62630;55.874;37.516;2023-02-28T17:44:22;2.85;;;0.70;;
74259;SDS011;62630;55.874;37.516;2023-02-28T17:46:51;3.28;;;0.90;;
74259;SDS011;62630;55.874;37.516;2023-02-28T17:49:21;2.22;;;0.55;;
74259;SDS011;62630;55.874;37.516;2023-02-28T17:51:50;4.18;;;0.40;;
74259;SDS011;62630;55.874;37.516;2023-02-28T17:54:19;0.68;;;0.22;;
74259;SDS011;62630;55.874;37.516;2023-02-28T17:56:46;2.38;;;0.40;;
74259;SDS011;62630;55.874;37.516;2023-02-28T17:59:13;4.60;;;0.63;;
74259;SDS011;62630;55.874;37.516;2023-02-28T18:01:39;1.92;;;0.40;;
74259;SDS011;62630;55.874;37.516;2023-02-28T18:04:04;1.85;;;0.65;;